createdAt,value
2022-12-03T00:00:27.307Z,23.70
2022-12-03T00:02:55.153Z,24.50
2022-12-03T00:05:22.719Z,23.35
2022-12-03T00:07:50.171Z,25.10
2022-12-03T00:10:17.834Z,30.35
2022-12-03T00:12:45.541Z,27.20
2022-12-03T00:15:13.393Z,28.30
2022-12-03T00:17:43.653Z,25.00
2022-12-03T00:20:24.150Z,28.67
2022-12-03T00:22:52.622Z,28.50
2022-12-03T00:25:20.100Z,27.52
2022-12-03T00:27:47.668Z,26.83
2022-12-03T00:30:17.678Z,30.40
2022-12-03T00:32:45.160Z,27.08
2022-12-03T00:35:12.558Z,25.02
2022-12-03T00:37:39.847Z,27.67
2022-12-03T00:40:08.470Z,27.40
2022-12-03T00:42:35.735Z,45.75
2022-12-03T00:45:04.929Z,26.05
2022-12-03T00:47:32.205Z,26.98
2022-12-03T00:49:59.482Z,27.30
2022-12-03T00:52:26.905Z,27.33
2022-12-03T00:54:54.473Z,25.75
2022-12-03T00:57:23.654Z,24.80
2022-12-03T00:59:51.469Z,25.30
2022-12-03T01:02:19.335Z,24.80
2022-12-03T01:04:47.010Z,27.30
2022-12-03T01:07:14.502Z,25.17
2022-12-03T01:09:41.748Z,29.67
2022-12-03T01:12:09.058Z,27.92
2022-12-03T01:14:38.725Z,26.35
2022-12-03T01:17:06.847Z,28.23
2022-12-03T01:19:35.328Z,28.17
2022-12-03T01:22:02.640Z,27.60
2022-12-03T01:24:29.996Z,28.45
2022-12-03T01:26:57.667Z,25.90
2022-12-03T01:29:25.426Z,26.55
2022-12-03T01:32:12.283Z,28.50
2022-12-03T01:34:39.721Z,28.38
2022-12-03T01:37:07.087Z,27.67
2022-12-03T01:39:37.029Z,27.08
2022-12-03T01:42:08.914Z,27.48
2022-12-03T01:44:40.231Z,24.23
2022-12-03T01:47:16.739Z,27.17
2022-12-03T01:49:56.822Z,27.80
2022-12-03T01:52:33.051Z,26.25
2022-12-03T01:55:10.836Z,25.75
2022-12-03T01:57:48.598Z,25.15
2022-12-03T02:00:21.063Z,28.70
2022-12-03T02:02:57.575Z,24.63
2022-12-03T02:05:31.314Z,26.50
2022-12-03T02:08:00.059Z,26.33
2022-12-03T02:10:34.926Z,24.15
2022-12-03T02:13:09.313Z,27.60
2022-12-03T02:15:40.138Z,25.20
2022-12-03T02:18:10.112Z,25.83
2022-12-03T02:21:19.219Z,24.05
2022-12-03T02:24:11.533Z,24.85
2022-12-03T02:26:39.078Z,25.10
2022-12-03T02:29:06.757Z,24.60
2022-12-03T02:31:34.309Z,21.65
2022-12-03T02:34:07.194Z,24.55
2022-12-03T02:36:36.360Z,25.55
2022-12-03T02:39:05.594Z,22.85
2022-12-03T02:41:51.657Z,26.35
2022-12-03T02:44:19.276Z,26.88
2022-12-03T02:46:46.912Z,25.80
2022-12-03T02:49:14.636Z,26.27
2022-12-03T02:51:42.105Z,27.65
2022-12-03T02:54:09.541Z,25.58
2022-12-03T02:56:37.222Z,28.98
2022-12-03T02:59:06.133Z,24.48
2022-12-03T03:01:35.202Z,24.90
2022-12-03T03:04:04.975Z,27.08
2022-12-03T03:06:33.174Z,29.00
2022-12-03T03:09:02.624Z,25.52
2022-12-03T03:11:30.460Z,27.48
2022-12-03T03:14:00.418Z,27.73
2022-12-03T03:16:30.194Z,27.70
2022-12-03T03:18:57.581Z,24.48
2022-12-03T03:21:28.051Z,25.48
2022-12-03T03:23:55.239Z,26.95
2022-12-03T03:26:22.670Z,28.80
2022-12-03T03:28:52.460Z,29.10
2022-12-03T03:31:24.406Z,27.95
2022-12-03T03:33:54.273Z,25.45
2022-12-03T03:36:23.409Z,26.73
2022-12-03T03:38:50.878Z,27.92
2022-12-03T03:41:22.163Z,26.20
2022-12-03T03:43:51.599Z,26.40
2022-12-03T03:46:22.533Z,25.70
2022-12-03T03:48:52.956Z,26.35
2022-12-03T03:51:21.019Z,25.13
2022-12-03T03:53:50.990Z,25.40
2022-12-03T03:56:23.881Z,28.85
2022-12-03T03:58:51.256Z,26.58
2022-12-03T04:01:19.536Z,29.27
2022-12-03T04:03:47.477Z,24.98
2022-12-03T04:06:14.869Z,26.42
2022-12-03T04:08:42.524Z,28.45
2022-12-03T04:11:33.270Z,26.05
2022-12-03T04:14:01.198Z,26.50
2022-12-03T04:16:28.559Z,22.77
2022-12-03T04:18:56.050Z,22.30
2022-12-03T04:21:43.341Z,26.73
2022-12-03T04:24:11.744Z,27.08
2022-12-03T04:26:58.474Z,26.70
2022-12-03T04:29:25.916Z,26.75
2022-12-03T04:32:12.278Z,24.75
2022-12-03T04:34:58.251Z,27.73
2022-12-03T04:37:25.720Z,25.52
2022-12-03T04:39:53.085Z,27.05
2022-12-03T04:42:20.509Z,27.85
2022-12-03T04:44:47.913Z,28.35
2022-12-03T04:47:21.619Z,28.45
2022-12-03T04:49:51.794Z,26.45
2022-12-03T04:52:22.262Z,28.88
2022-12-03T04:54:49.721Z,27.58
2022-12-03T04:57:17.813Z,24.63
2022-12-03T05:00:37.639Z,25.23
2022-12-03T05:02:48.624Z,27.33
2022-12-03T05:05:16.657Z,25.83
2022-12-03T05:07:44.057Z,26.00
2022-12-03T05:10:12.698Z,24.92
2022-12-03T05:12:39.885Z,28.00
2022-12-03T05:15:08.065Z,23.52
2022-12-03T05:17:35.332Z,28.27
2022-12-03T05:20:21.557Z,28.33
2022-12-03T05:22:49.191Z,25.85
2022-12-03T05:25:19.728Z,25.92
2022-12-03T05:27:48.322Z,22.95
2022-12-03T05:30:16.046Z,26.25
2022-12-03T05:32:43.352Z,26.50
2022-12-03T05:35:11.316Z,23.65
2022-12-03T05:37:38.699Z,26.25
2022-12-03T05:40:07.410Z,24.13
2022-12-03T05:42:53.723Z,25.92
2022-12-03T05:45:25.801Z,26.35
2022-12-03T05:47:56.176Z,24.48
2022-12-03T05:50:28.127Z,26.65
2022-12-03T05:53:07.899Z,24.77
2022-12-03T05:56:09.149Z,26.10
2022-12-03T05:58:36.439Z,26.15
2022-12-03T06:01:04.074Z,24.35
2022-12-03T06:03:31.925Z,24.15
2022-12-03T06:05:59.967Z,25.83
2022-12-03T06:08:27.563Z,26.65
2022-12-03T06:11:01.421Z,23.95
2022-12-03T06:13:28.913Z,26.80
2022-12-03T06:15:56.523Z,26.65
2022-12-03T06:18:23.923Z,27.63
2022-12-03T06:20:51.267Z,26.23
2022-12-03T06:23:18.504Z,27.83
2022-12-03T06:25:45.830Z,28.20
2022-12-03T06:28:13.223Z,25.38
2022-12-03T06:30:40.751Z,27.92
2022-12-03T06:33:08.190Z,28.95
2022-12-03T06:35:37.825Z,29.42
2022-12-03T06:38:05.161Z,27.92
2022-12-03T06:40:32.577Z,28.05
2022-12-03T06:43:00.013Z,29.55
2022-12-03T06:45:27.398Z,32.05
2022-12-03T06:47:54.555Z,27.25
2022-12-03T06:50:21.794Z,27.88
2022-12-03T06:52:49.059Z,29.35
2022-12-03T06:55:17.531Z,28.10
2022-12-03T06:57:44.802Z,27.15
2022-12-03T07:00:13.452Z,30.40
2022-12-03T07:02:49.089Z,28.17
2022-12-03T07:05:17.042Z,27.42
2022-12-03T07:07:44.321Z,33.47
2022-12-03T07:10:12.457Z,30.10
2022-12-03T07:12:39.744Z,31.83
2022-12-03T07:15:08.056Z,36.20
2022-12-03T07:17:35.603Z,33.55
2022-12-03T07:20:04.949Z,33.15
2022-12-03T07:22:33.142Z,33.10
2022-12-03T07:25:00.451Z,32.60
2022-12-03T07:27:27.899Z,33.50
2022-12-03T07:29:57.495Z,35.22
2022-12-03T07:32:24.704Z,32.97
2022-12-03T07:34:52.572Z,30.45
2022-12-03T07:37:23.088Z,31.38
2022-12-03T07:39:52.543Z,33.80
2022-12-03T07:42:19.831Z,31.38
2022-12-03T07:44:47.256Z,32.92
2022-12-03T07:47:14.876Z,30.02
2022-12-03T07:49:42.343Z,31.25
2022-12-03T07:52:09.952Z,28.83
2022-12-03T07:54:37.464Z,33.35
2022-12-03T07:57:04.845Z,32.30
2022-12-03T07:59:32.463Z,28.77
2022-12-03T08:01:59.881Z,29.70
2022-12-03T08:04:28.065Z,30.33
2022-12-03T08:06:59.059Z,33.33
2022-12-03T08:09:28.750Z,29.92
2022-12-03T08:11:59.823Z,29.67
2022-12-03T08:14:28.375Z,29.73
2022-12-03T08:16:55.632Z,29.50
2022-12-03T08:19:23.010Z,29.05
2022-12-03T08:21:50.208Z,29.13
2022-12-03T08:24:21.728Z,30.13
2022-12-03T08:26:49.965Z,34.17
2022-12-03T08:29:20.199Z,30.33
2022-12-03T08:32:01.438Z,33.97
2022-12-03T08:34:43.798Z,33.58
2022-12-03T08:37:19.492Z,36.72
2022-12-03T08:39:54.896Z,37.65
2022-12-03T08:42:42.248Z,36.70
2022-12-03T08:45:29.123Z,38.97
2022-12-03T08:48:29.670Z,36.63
2022-12-03T08:51:15.461Z,37.67
2022-12-03T08:54:06.053Z,35.97
2022-12-03T08:56:37.306Z,34.08
2022-12-03T08:59:19.969Z,37.90
2022-12-03T09:01:49.141Z,36.17
2022-12-03T09:04:39.618Z,37.88
2022-12-03T09:07:10.007Z,35.50
2022-12-03T09:09:40.440Z,32.88
2022-12-03T09:12:08.416Z,35.33
2022-12-03T09:14:36.246Z,32.88
2022-12-03T09:17:04.140Z,30.50
2022-12-03T09:19:32.107Z,31.67
2022-12-03T09:21:59.939Z,31.42
2022-12-03T09:24:28.021Z,30.55
2022-12-03T09:26:56.359Z,29.02
2022-12-03T09:29:24.184Z,28.80
2022-12-03T09:31:54.279Z,30.60
2022-12-03T09:34:23.692Z,32.05
2022-12-03T09:36:51.381Z,27.02
2022-12-03T09:39:19.025Z,27.38
2022-12-03T09:41:47.207Z,27.38
2022-12-03T09:44:17.926Z,26.13
2022-12-03T09:46:48.631Z,25.45
2022-12-03T09:49:20.043Z,27.95
2022-12-03T09:51:47.899Z,28.63
2022-12-03T09:54:26.900Z,27.58
2022-12-03T09:56:57.345Z,28.38
2022-12-03T09:59:32.235Z,26.30
2022-12-03T10:02:01.810Z,26.85
2022-12-03T10:04:29.936Z,28.67
2022-12-03T10:06:59.283Z,26.23
2022-12-03T10:09:29.311Z,25.95
2022-12-03T10:11:59.808Z,27.00
2022-12-03T10:14:28.324Z,26.92
2022-12-03T10:16:56.632Z,27.63
2022-12-03T10:19:31.483Z,29.27
2022-12-03T10:21:59.203Z,27.23
2022-12-03T10:24:30.902Z,28.13
2022-12-03T10:27:22.674Z,26.80
2022-12-03T10:30:00.402Z,26.33
2022-12-03T10:32:47.953Z,27.83
2022-12-03T10:35:37.409Z,30.00
2022-12-03T10:38:19.439Z,29.02
2022-12-03T10:40:46.789Z,25.98
2022-12-03T10:43:18.657Z,27.52
2022-12-03T10:46:05.384Z,27.02
2022-12-03T10:48:32.921Z,25.17
2022-12-03T10:51:21.221Z,23.25
2022-12-03T10:53:50.835Z,23.77
2022-12-03T10:56:36.626Z,24.02
2022-12-03T10:59:06.202Z,25.92
2022-12-03T11:01:33.920Z,21.50
2022-12-03T11:04:05.183Z,24.67
2022-12-03T11:06:38.555Z,25.42
2022-12-03T11:09:35.332Z,23.50
2022-12-03T11:12:21.539Z,21.40
2022-12-03T11:15:05.120Z,27.23
2022-12-03T11:17:41.324Z,23.85
2022-12-03T11:20:22.854Z,23.60
2022-12-03T11:22:56.780Z,24.13
2022-12-03T11:25:28.517Z,23.45
2022-12-03T11:28:13.859Z,21.75
2022-12-03T11:30:53.581Z,24.08
2022-12-03T11:33:40.538Z,22.15
2022-12-03T11:36:12.856Z,23.55
2022-12-03T11:38:55.359Z,23.25
2022-12-03T11:41:30.310Z,22.90
2022-12-03T11:44:22.177Z,23.88
2022-12-03T11:46:50.088Z,23.63
2022-12-03T11:49:44.433Z,23.02
2022-12-03T11:52:33.493Z,25.27
2022-12-03T11:55:24.978Z,25.75
2022-12-03T11:58:04.617Z,24.58
2022-12-03T12:00:32.507Z,28.70
2022-12-03T12:03:00.290Z,25.20
2022-12-03T12:05:32.671Z,25.73
2022-12-03T12:08:02.746Z,26.67
2022-12-03T12:10:49.615Z,24.75
2022-12-03T12:13:36.629Z,25.42
2022-12-03T12:16:07.951Z,25.08
2022-12-03T12:18:52.427Z,24.13
2022-12-03T12:21:48.915Z,27.10
2022-12-03T12:24:54.486Z,24.33
2022-12-03T12:27:53.709Z,28.52
2022-12-03T12:30:32.348Z,26.02
2022-12-03T12:33:20.858Z,24.88
2022-12-03T12:35:48.185Z,25.52
2022-12-03T12:38:25.448Z,27.30
2022-12-03T12:41:10.085Z,25.30
2022-12-03T12:43:39.488Z,24.15
2022-12-03T12:46:46.063Z,30.13
2022-12-03T12:49:01.228Z,26.33
2022-12-03T12:51:28.704Z,26.92
2022-12-03T12:54:03.417Z,24.88
2022-12-03T12:56:36.426Z,28.15
2022-12-03T12:59:26.407Z,27.65
2022-12-03T13:01:56.439Z,28.98
2022-12-03T13:04:25.813Z,29.70
2022-12-03T13:06:54.750Z,24.65
2022-12-03T13:09:25.968Z,28.40
2022-12-03T13:12:07.383Z,26.20
2022-12-03T13:14:37.423Z,28.73
2022-12-03T13:17:25.922Z,27.13
2022-12-03T13:20:03.651Z,26.48
2022-12-03T13:22:32.758Z,27.40
2022-12-03T13:25:58.280Z,26.67
2022-12-03T13:28:21.300Z,23.98
2022-12-03T13:30:48.719Z,27.83
2022-12-03T13:33:26.595Z,28.75
2022-12-03T13:35:57.527Z,28.85
2022-12-03T13:38:25.852Z,27.48
2022-12-03T13:41:02.937Z,28.40
2022-12-03T13:43:38.708Z,27.27
2022-12-03T13:46:11.583Z,28.67
2022-12-03T13:48:40.686Z,28.50
2022-12-03T13:51:30.702Z,28.20
2022-12-03T13:54:00.182Z,28.77
2022-12-03T13:56:34.360Z,28.38
2022-12-03T13:59:06.413Z,27.02
2022-12-03T14:01:52.415Z,26.70
2022-12-03T14:04:29.888Z,26.30
2022-12-03T14:06:59.789Z,25.83
2022-12-03T14:09:27.226Z,28.88
2022-12-03T14:12:13.552Z,30.15
2022-12-03T14:14:41.095Z,27.52
2022-12-03T14:17:10.272Z,27.25
2022-12-03T14:19:43.225Z,25.30
2022-12-03T14:22:18.046Z,26.25
2022-12-03T14:24:45.346Z,30.52
2022-12-03T14:27:12.762Z,26.67
2022-12-03T14:29:40.275Z,24.67
2022-12-03T14:32:08.974Z,26.52
2022-12-03T14:34:38.576Z,26.50
2022-12-03T14:37:05.954Z,27.17
2022-12-03T14:39:33.356Z,30.35
2022-12-03T14:42:16.797Z,23.92
2022-12-03T14:44:52.238Z,27.50
2022-12-03T14:47:25.225Z,28.60
2022-12-03T14:49:53.403Z,24.30
2022-12-03T14:52:20.954Z,27.40
2022-12-03T14:54:48.236Z,25.73
2022-12-03T14:57:16.419Z,24.55
2022-12-03T14:59:48.365Z,26.25
2022-12-03T15:02:16.014Z,35.58
2022-12-03T15:04:43.435Z,61.88
2022-12-03T15:07:10.785Z,51.67
2022-12-03T15:09:38.206Z,27.75
2022-12-03T15:12:06.327Z,27.70
2022-12-03T15:14:33.750Z,25.17
2022-12-03T15:17:03.208Z,24.38
2022-12-03T15:19:33.443Z,27.88
2022-12-03T15:22:00.963Z,26.73
2022-12-03T15:24:28.760Z,24.67
2022-12-03T15:26:56.358Z,26.42
2022-12-03T15:29:23.821Z,28.13
2022-12-03T15:31:51.340Z,28.23
2022-12-03T15:34:22.428Z,28.27
2022-12-03T15:36:53.217Z,22.67
2022-12-03T15:39:20.519Z,22.50
2022-12-03T15:41:48.638Z,22.17
2022-12-03T15:44:18.568Z,28.65
2022-12-03T15:46:46.136Z,27.55
2022-12-03T15:49:13.697Z,25.30
2022-12-03T15:52:00.288Z,25.90
2022-12-03T15:54:30.403Z,27.55
2022-12-03T15:56:58.261Z,24.85
2022-12-03T15:59:25.944Z,25.73
2022-12-03T16:01:53.510Z,26.33
2022-12-03T16:04:20.858Z,26.60
2022-12-03T16:06:48.205Z,26.25
2022-12-03T16:09:15.735Z,26.13
2022-12-03T16:11:43.312Z,25.20
2022-12-03T16:14:10.517Z,25.00
2022-12-03T16:16:38.187Z,24.85
2022-12-03T16:19:05.585Z,27.88
2022-12-03T16:21:34.897Z,28.42
2022-12-03T16:24:02.860Z,29.70
2022-12-03T16:26:30.639Z,30.73
2022-12-03T16:28:58.002Z,27.55
2022-12-03T16:31:25.450Z,29.13
2022-12-03T16:34:02.484Z,26.23
2022-12-03T16:36:35.539Z,29.20
2022-12-03T16:39:03.165Z,31.90
2022-12-03T16:41:30.702Z,29.25
2022-12-03T16:44:48.469Z,29.05
2022-12-03T16:47:16.024Z,27.08
2022-12-03T16:49:43.366Z,27.67
2022-12-03T16:52:10.935Z,27.95
2022-12-03T16:54:38.579Z,27.70
2022-12-03T16:57:06.191Z,28.10
2022-12-03T16:59:33.918Z,28.35
2022-12-03T17:02:01.729Z,28.35
2022-12-03T17:04:29.298Z,30.42
2022-12-03T17:06:56.803Z,28.48
2022-12-03T17:09:25.069Z,29.98
2022-12-03T17:11:55.233Z,27.75
2022-12-03T17:14:32.819Z,27.08
2022-12-03T17:17:01.726Z,27.42
2022-12-03T17:19:34.243Z,26.88
2022-12-03T17:22:05.596Z,27.75
2022-12-03T17:24:33.953Z,27.55
2022-12-03T17:27:06.495Z,28.98
2022-12-03T17:29:34.878Z,30.83
2022-12-03T17:32:04.035Z,28.60
2022-12-03T17:34:34.503Z,28.95
2022-12-03T17:37:03.648Z,34.67
2022-12-03T17:39:34.352Z,29.60
2022-12-03T17:42:08.032Z,32.08
2022-12-03T17:44:39.169Z,28.42
2022-12-03T17:47:09.688Z,30.45
2022-12-03T17:49:39.890Z,28.40
2022-12-03T17:52:08.469Z,32.35
2022-12-03T17:55:01.973Z,29.00
2022-12-03T17:57:25.540Z,31.05
2022-12-03T17:59:53.700Z,30.58
2022-12-03T18:02:25.891Z,30.20
2022-12-03T18:04:54.082Z,26.15
2022-12-03T18:07:22.171Z,31.90
2022-12-03T18:09:55.036Z,28.20
2022-12-03T18:12:26.637Z,28.90
2022-12-03T18:15:03.025Z,27.05
2022-12-03T18:17:33.465Z,29.65
2022-12-03T18:20:05.661Z,27.00
2022-12-03T18:22:35.043Z,26.40
2022-12-03T18:25:06.312Z,29.55
2022-12-03T18:27:34.473Z,29.45
2022-12-03T18:30:06.315Z,29.35
2022-12-03T18:32:34.798Z,26.15
2022-12-03T18:35:04.087Z,29.95
2022-12-03T18:37:33.380Z,25.20
2022-12-03T18:40:12.092Z,27.63
2022-12-03T18:42:40.478Z,28.45
2022-12-03T18:45:15.891Z,29.35
2022-12-03T18:47:44.270Z,29.40
2022-12-03T18:50:13.314Z,27.02
2022-12-03T18:52:43.948Z,27.40
2022-12-03T18:55:22.067Z,28.35
2022-12-03T18:57:50.078Z,29.17
2022-12-03T19:00:18.884Z,26.27
2022-12-03T19:03:03.184Z,28.92
2022-12-03T19:05:36.475Z,25.33
2022-12-03T19:08:14.215Z,28.92
2022-12-03T19:10:43.615Z,27.45
2022-12-03T19:13:13.711Z,29.20
2022-12-03T19:15:42.005Z,27.42
2022-12-03T19:18:09.787Z,28.52
2022-12-03T19:20:42.238Z,28.27
2022-12-03T19:23:13.017Z,27.95
2022-12-03T19:25:41.203Z,31.73
2022-12-03T19:28:09.847Z,25.17
2022-12-03T19:30:37.606Z,31.02
2022-12-03T19:33:05.591Z,24.55
2022-12-03T19:35:39.906Z,24.45
2022-12-03T19:38:07.507Z,24.20
2022-12-03T19:40:35.126Z,26.25
2022-12-03T19:43:02.771Z,25.33
2022-12-03T19:45:31.680Z,28.25
2022-12-03T19:48:00.390Z,28.08
2022-12-03T19:50:28.210Z,23.80
2022-12-03T19:52:55.771Z,29.10
2022-12-03T19:55:23.355Z,27.85
2022-12-03T19:57:54.274Z,28.73
2022-12-03T20:00:22.562Z,27.27
2022-12-03T20:02:50.836Z,28.65
2022-12-03T20:05:18.860Z,32.53
2022-12-03T20:07:46.941Z,27.55
2022-12-03T20:10:14.414Z,40.38
2022-12-03T20:12:42.207Z,30.67
2022-12-03T20:15:11.109Z,43.50
2022-12-03T20:17:38.887Z,31.63
2022-12-03T20:20:08.259Z,27.60
2022-12-03T20:22:36.090Z,29.85
2022-12-03T20:25:04.354Z,26.85
2022-12-03T20:28:04.927Z,27.63
2022-12-03T20:30:32.907Z,29.02
2022-12-03T20:33:00.827Z,27.58
2022-12-03T20:35:30.883Z,27.95
2022-12-03T20:37:58.740Z,29.65
2022-12-03T20:40:26.421Z,29.75
2022-12-03T20:42:54.096Z,30.00
2022-12-03T20:45:21.758Z,31.92
2022-12-03T20:47:51.499Z,31.70
2022-12-03T20:50:19.335Z,30.75
2022-12-03T20:53:03.634Z,32.63
2022-12-03T20:55:34.589Z,34.70
2022-12-03T20:58:03.015Z,43.03
2022-12-03T21:00:31.857Z,35.45
2022-12-03T21:02:59.697Z,29.20
2022-12-03T21:05:27.589Z,36.63
2022-12-03T21:08:01.407Z,42.20
2022-12-03T21:10:44.811Z,32.10
2022-12-03T21:13:18.538Z,35.80
2022-12-03T21:15:47.385Z,36.13
2022-12-03T21:18:17.829Z,39.75
2022-12-03T21:20:48.241Z,36.97
2022-12-03T21:23:15.911Z,35.75
2022-12-03T21:25:43.806Z,41.33
2022-12-03T21:28:11.776Z,36.28
2022-12-03T21:30:40.475Z,37.33
2022-12-03T21:33:08.132Z,41.85
2022-12-03T21:35:39.773Z,36.53
2022-12-03T21:38:08.590Z,46.80
2022-12-03T21:40:36.113Z,44.15
2022-12-03T21:43:03.510Z,35.28
2022-12-03T21:45:31.054Z,41.72
2022-12-03T21:47:58.711Z,37.67
2022-12-03T21:50:28.686Z,49.35
2022-12-03T21:52:56.521Z,36.38
2022-12-03T21:55:24.732Z,35.50
2022-12-03T21:57:52.667Z,36.83
2022-12-03T22:00:21.780Z,36.95
2022-12-03T22:02:49.541Z,47.42
2022-12-03T22:05:17.404Z,41.25
2022-12-03T22:07:44.897Z,49.83
2022-12-03T22:10:13.399Z,38.15
2022-12-03T22:12:43.267Z,47.20
2022-12-03T22:15:18.185Z,35.53
2022-12-03T22:17:46.411Z,36.50
2022-12-03T22:20:14.396Z,37.65
2022-12-03T22:22:41.976Z,35.00
2022-12-03T22:25:10.130Z,37.78
2022-12-03T22:27:37.775Z,37.10
2022-12-03T22:30:07.149Z,36.20
2022-12-03T22:32:39.800Z,38.50
2022-12-03T22:35:08.359Z,36.33
2022-12-03T22:37:42.349Z,36.92
2022-12-03T22:40:10.513Z,33.83
2022-12-03T22:42:37.721Z,39.28
2022-12-03T22:45:06.453Z,36.30
2022-12-03T22:47:34.098Z,35.80
2022-12-03T22:50:01.581Z,34.20
2022-12-03T22:52:30.406Z,34.67
2022-12-03T22:54:58.027Z,37.85
2022-12-03T22:57:25.729Z,33.75
2022-12-03T22:59:55.118Z,35.53
2022-12-03T23:02:23.486Z,33.40
2022-12-03T23:04:59.006Z,34.70
2022-12-03T23:07:29.136Z,34.10
2022-12-03T23:09:59.977Z,32.25
2022-12-03T23:12:40.716Z,32.72
2022-12-03T23:15:09.997Z,34.33
2022-12-03T23:17:37.677Z,33.53
2022-12-03T23:20:06.730Z,35.70
2022-12-03T23:22:34.627Z,32.78
2022-12-03T23:25:10.156Z,32.67
2022-12-03T23:27:37.964Z,34.58
2022-12-03T23:30:07.955Z,31.42
2022-12-03T23:32:36.549Z,35.03
2022-12-03T23:35:05.379Z,33.08
2022-12-03T23:37:33.252Z,34.15
2022-12-03T23:40:02.536Z,30.40
2022-12-03T23:42:43.493Z,33.67
2022-12-03T23:45:11.602Z,30.00
2022-12-03T23:47:47.032Z,33.15
2022-12-03T23:50:14.980Z,30.65
2022-12-03T23:52:46.836Z,33.15
2022-12-03T23:55:30.023Z,33.28
2022-12-03T23:57:57.637Z,34.78
